Time;durP1;ratioP1;P1;durP2;ratioP2;P2;SDS_P1;SDS_P2;PMS_P1;PMS_P2;Temp;Humidity;BMP_temperature;BMP_pressure;BME280_temperature;BME280_humidity;BME280_pressure;Samples;Min_cycle;Max_cycle;Signal;HPM_P1;HPM_P2
2021/03/26 00:01:35;;;;;;;155.27;83.45;;;;;;;5.79;71.90;101229.72;1698250;81;25865;-78
2021/03/26 00:04:05;;;;;;;154.03;84.87;;;;;;;5.75;71.54;101231.80;1737051;81;25765;-78
2021/03/26 00:06:37;;;;;;;153.15;81.95;;;;;;;5.70;71.45;101229.22;1683082;83;26066;-78
2021/03/26 00:09:12;;;;;;;168.55;88.35;;;;;;;5.69;71.47;101227.56;1720299;81;27540;-78
2021/03/26 00:11:39;;;;;;;163.45;85.75;;;;;;;5.69;71.61;101231.55;1710669;81;25874;-78
2021/03/26 00:14:07;;;;;;;160.45;87.30;;;;;;;5.68;71.80;101228.53;1740445;81;25855;-79
2021/03/26 00:16:34;;;;;;;168.82;86.87;;;;;;;5.68;72.15;101233.36;1670987;81;26121;-78
2021/03/26 00:19:02;;;;;;;165.03;87.92;;;;;;;5.70;72.28;101230.55;1703898;81;26298;-78
2021/03/26 00:21:30;;;;;;;164.95;86.92;;;;;;;5.75;72.51;101227.00;1714550;81;27315;-78
2021/03/26 00:23:57;;;;;;;148.20;79.42;;;;;;;5.78;72.68;101232.86;1736168;81;26321;-78
2021/03/26 00:26:24;;;;;;;156.45;87.37;;;;;;;5.80;72.68;101234.04;1683248;81;25819;-78
2021/03/26 00:28:52;;;;;;;165.50;87.25;;;;;;;5.75;72.55;101234.97;1686850;81;26914;-77
2021/03/26 00:31:19;;;;;;;175.45;89.65;;;;;;;5.73;72.56;101239.08;1656612;81;25842;-78
2021/03/26 00:33:48;;;;;;;157.12;86.12;;;;;;;5.75;72.59;101231.80;1714011;81;28503;-80
2021/03/26 00:36:16;;;;;;;158.90;86.45;;;;;;;5.72;72.76;101232.09;1673170;81;25823;-78
2021/03/26 00:38:43;;;;;;;157.90;85.57;;;;;;;5.71;73.02;101230.41;1707017;81;25779;-78
2021/03/26 00:41:10;;;;;;;160.15;86.78;;;;;;;5.72;73.10;101233.42;1714689;81;25671;-77
2021/03/26 00:43:38;;;;;;;155.75;84.83;;;;;;;5.75;73.11;101229.66;1736488;81;25694;-78
2021/03/26 00:46:05;;;;;;;161.85;85.30;;;;;;;5.78;73.14;101224.04;1677974;81;27544;-78
2021/03/26 00:48:32;;;;;;;171.87;88.75;;;;;;;5.80;73.01;101224.25;1714505;81;25901;-78
2021/03/26 00:51:02;;;;;;;163.82;89.05;;;;;;;5.84;73.03;101213.71;1736173;81;25876;-78
2021/03/26 00:53:34;;;;;;;177.65;90.20;;;;;;;5.87;72.97;101219.24;1670331;81;26729;-78
2021/03/26 00:56:03;;;;;;;174.15;91.92;;;;;;;5.89;72.90;101220.79;1658277;83;26440;-79
2021/03/26 00:58:32;;;;;;;179.65;94.42;;;;;;;5.92;72.96;101219.16;1690760;83;28644;-78
2021/03/26 01:01:00;;;;;;;170.53;90.15;;;;;;;5.94;72.91;101211.91;1735198;81;25642;-78
2021/03/26 01:03:30;;;;;;;179.93;95.42;;;;;;;5.98;72.86;101211.97;1648247;83;25846;-78
2021/03/26 01:06:03;;;;;;;180.57;95.07;;;;;;;6.01;72.90;101212.14;1698710;82;25826;-78
2021/03/26 01:08:31;;;;;;;180.60;96.37;;;;;;;6.04;72.84;101210.55;1666496;83;25764;-78
2021/03/26 01:11:17;;;;;;;173.05;88.70;;;;;;;6.05;72.79;101210.39;1678889;84;27911;-78
2021/03/26 01:13:46;;;;;;;163.45;89.80;;;;;;;6.04;72.63;101207.41;1731317;81;26362;-78
2021/03/26 01:16:18;;;;;;;163.65;86.75;;;;;;;6.03;72.61;101210.22;1688051;81;25778;-79
2021/03/26 01:18:47;;;;;;;166.32;88.75;;;;;;;5.98;72.54;101210.64;1717488;81;25889;-78
2021/03/26 01:21:21;;;;;;;154.12;86.47;;;;;;;5.89;72.44;101216.80;1736302;81;26362;-77
2021/03/26 01:23:48;;;;;;;162.32;85.85;;;;;;;5.77;72.49;101222.38;1734900;81;27539;-76
2021/03/26 01:26:16;;;;;;;165.05;86.17;;;;;;;5.67;72.66;101215.72;1712401;81;26492;-77
2021/03/26 01:28:46;;;;;;;160.45;87.33;;;;;;;5.68;72.83;101212.09;1726159;81;25957;-76
2021/03/26 01:31:33;;;;;;;163.43;102.80;;;;;;;5.72;72.87;101211.31;1807593;77;27742;-77
2021/03/26 01:34:03;;;;;;;159.57;87.25;;;;;;;5.84;72.39;101204.41;1763346;80;26172;-77
2021/03/26 01:36:33;;;;;;;155.18;82.67;;;;;;;5.76;72.44;101218.88;1761497;80;28573;-78
2021/03/26 01:39:03;;;;;;;143.37;79.30;;;;;;;5.62;72.38;101231.75;1732281;80;25850;-77
2021/03/26 01:41:45;;;;;;;158.30;85.03;;;;;;;5.48;72.58;101223.69;1758810;80;25858;-78
2021/03/26 01:44:27;;;;;;;173.02;86.95;;;;;;;5.49;72.88;101220.88;1822228;77;25697;-77
2021/03/26 01:46:56;;;;;;;158.10;84.37;;;;;;;5.46;72.97;101211.88;1789993;79;26067;-76
2021/03/26 01:49:25;;;;;;;165.92;87.25;;;;;;;5.49;73.06;101223.55;1740253;79;27542;-77
2021/03/26 01:51:54;;;;;;;166.20;86.20;;;;;;;5.47;73.09;101226.02;1759829;78;26488;-77
2021/03/26 01:54:22;;;;;;;159.65;83.97;;;;;;;5.51;73.15;101223.91;1724900;80;26290;-77
2021/03/26 01:56:52;;;;;;;160.00;81.10;;;;;;;5.55;73.11;101223.49;1759920;80;26238;-77
2021/03/26 01:59:27;;;;;;;157.88;81.57;;;;;;;5.52;72.91;101225.60;1707172;80;26070;-79
2021/03/26 02:02:00;;;;;;;157.00;81.87;;;;;;;5.43;72.85;101236.05;1700941;79;28416;-78
2021/03/26 02:04:43;;;;;;;155.87;85.12;;;;;;;5.37;72.97;101229.97;1725647;80;25909;-77
2021/03/26 02:07:38;;;;;;;156.35;84.45;;;;;;;5.45;73.15;101227.45;1837222;77;25638;-77
2021/03/26 02:10:07;;;;;;;167.22;86.08;;;;;;;5.43;73.11;101224.10;1794162;78;26452;-77
2021/03/26 02:12:35;;;;;;;158.82;83.37;;;;;;;5.46;73.07;101225.64;1748254;78;28519;-77
2021/03/26 02:15:10;;;;;;;163.43;83.52;;;;;;;5.49;73.02;101233.36;1764115;80;25800;-77
2021/03/26 02:17:39;;;;;;;160.80;84.17;;;;;;;5.53;73.00;101227.27;1751262;78;25890;-77
2021/03/26 02:20:12;;;;;;;;;;;;;;;5.55;73.01;101229.29;1793338;79;25726;-77
2021/03/26 02:22:40;;;;;;;150.90;81.70;;;;;;;5.59;73.01;101232.86;1774088;80;25718;-76
2021/03/26 02:25:14;;;;;;;158.45;85.20;;;;;;;5.57;73.09;101232.64;1723925;81;27511;-77
2021/03/26 02:27:42;;;;;;;159.50;86.15;;;;;;;5.55;72.88;101232.80;1726101;81;25906;-76
2021/03/26 02:30:24;;;;;;;157.78;84.47;;;;;;;5.53;72.88;101232.09;1736383;81;26463;-77
2021/03/26 02:32:54;;;;;;;169.07;84.90;;;;;;;5.49;72.93;101242.14;1751035;81;26369;-76
2021/03/26 02:35:41;;;;;;;152.68;85.00;;;;;;;5.47;72.97;101249.41;1722613;82;25769;-77
2021/03/26 02:38:31;;;;;;;155.32;83.00;;;;;;;5.54;73.03;101250.22;1838734;77;25652;-77
2021/03/26 02:41:24;;;;;;;141.32;75.62;;;;;;;5.50;73.08;101256.27;1800440;78;26148;-78
2021/03/26 02:44:16;;;;;;;148.55;81.10;;;;;;;5.49;73.16;101258.59;1802106;78;27528;-78
2021/03/26 02:46:54;;;;;;;157.12;84.52;;;;;;;5.39;73.11;101255.06;1794066;77;26099;-77
2021/03/26 02:49:50;;;;;;;150.45;79.90;;;;;;;5.31;73.42;101257.57;1785424;78;25802;-77
2021/03/26 02:52:38;;;;;;;154.63;84.22;;;;;;;5.28;73.57;101260.52;1794665;78;25823;-78
2021/03/26 02:55:18;;;;;;;156.72;84.30;;;;;;;5.26;73.77;101259.82;1759666;79;26038;-78
2021/03/26 02:58:03;;;;;;;153.93;82.88;;;;;;;5.28;73.95;101263.99;1773568;79;27538;-77
2021/03/26 03:00:58;;;;;;;166.85;87.70;;;;;;;5.25;73.92;101259.45;1791974;78;26551;-76
2021/03/26 03:03:28;;;;;;;151.55;83.80;;;;;;;5.20;73.80;101263.84;1793086;78;25333;-77
2021/03/26 03:06:06;;;;;;;186.43;103.02;;;;;;;5.16;73.94;101255.80;1770419;80;26453;-77
2021/03/26 03:08:37;;;;;;;151.53;85.50;;;;;;;5.21;74.03;101252.73;1767547;79;25780;-78
2021/03/26 03:11:14;;;;;;;154.15;83.95;;;;;;;5.22;74.16;101247.77;1711092;82;27559;-77
2021/03/26 03:13:52;;;;;;;164.43;91.67;;;;;;;5.24;74.29;101247.98;1733522;81;25799;-76
2021/03/26 03:16:36;;;;;;;158.70;85.25;;;;;;;5.23;74.20;101246.32;1739797;81;26719;-76
2021/03/26 03:19:18;;;;;;;159.07;83.37;;;;;;;5.22;74.17;101250.41;1718087;81;26495;-78
2021/03/26 03:21:57;;;;;;;161.55;86.25;;;;;;;5.23;74.20;101248.13;1737844;80;26401;-77
2021/03/26 03:24:40;;;;;;;167.00;87.20;;;;;;;5.24;74.30;101245.81;1759087;80;28438;-77
2021/03/26 03:27:13;;;;;;;158.22;83.62;;;;;;;5.19;74.27;101234.30;1756442;81;25755;-77
2021/03/26 03:29:53;;;;;;;148.62;79.87;;;;;;;5.20;74.45;101241.75;1766433;80;25690;-77
2021/03/26 03:32:44;;;;;;;150.97;83.78;;;;;;;5.29;74.44;101234.30;1828104;77;26523;-76
2021/03/26 03:35:32;;;;;;;156.67;82.40;;;;;;;5.25;74.41;101242.19;1793009;78;26334;-77
2021/03/26 03:38:36;;;;;;;157.35;83.45;;;;;;;5.22;74.31;101241.97;1734973;81;28100;-77
2021/03/26 03:41:23;;;;;;;154.27;82.72;;;;;;;5.26;74.37;101237.25;1749504;81;26093;-78
2021/03/26 03:44:32;;;;;;;151.60;78.70;;;;;;;5.26;74.35;101237.25;1714465;81;25779;-76
2021/03/26 03:47:16;;;;;;;155.63;82.75;;;;;;;5.19;74.40;101236.95;1761099;80;26030;-77
2021/03/26 03:50:24;;;;;;;154.27;81.22;;;;;;;5.20;74.60;101230.64;1837570;77;25680;-76
2021/03/26 03:53:05;;;;;;;155.37;83.50;;;;;;;5.14;74.68;101229.02;1795561;78;26044;-77
2021/03/26 03:55:44;;;;;;;154.18;83.00;;;;;;;5.16;74.54;101240.34;1800076;78;27604;-76
2021/03/26 03:58:20;;;;;;;149.00;80.05;;;;;;;5.15;74.60;101232.05;1802862;78;26372;-77
2021/03/26 04:01:00;;;;;;;147.17;77.95;;;;;;;5.20;74.62;101233.30;1787778;78;26360;-78
2021/03/26 04:03:54;;;;;;;144.43;77.03;;;;;;;5.24;74.66;101232.53;1805730;78;25833;-77
2021/03/26 04:06:50;;;;;;;159.95;81.87;;;;;;;5.25;74.70;101227.10;1802430;78;26659;-77
2021/03/26 04:09:21;;;;;;;154.55;79.53;;;;;;;5.31;74.70;101241.63;1770601;78;27532;-77
2021/03/26 04:12:01;;;;;;;150.55;79.95;;;;;;;5.34;74.67;101235.58;1788915;78;26015;-77
2021/03/26 04:15:16;;;;;;;202.35;107.12;;;;;;;5.43;74.66;101230.74;1829869;77;25736;-77
2021/03/26 04:18:05;;;;;;;188.75;99.77;;;;;;;5.38;74.54;101237.46;1796263;78;26442;-77
2021/03/26 04:20:56;;;;;;;152.95;82.30;;;;;;;5.41;74.52;101235.84;1829474;77;25686;-77
2021/03/26 04:23:57;;;;;;;146.70;79.25;;;;;;;5.31;74.57;101242.96;1794232;78;25968;-78
2021/03/26 04:26:53;;;;;;;147.72;78.07;;;;;;;5.26;74.71;101240.72;1768799;78;27531;-77
2021/03/26 04:29:50;;;;;;;149.35;83.03;;;;;;;5.33;74.76;101233.04;1838996;77;25688;-78
2021/03/26 04:32:26;;;;;;;155.10;85.45;;;;;;;5.28;74.54;101243.25;1833871;77;25735;-77
2021/03/26 04:34:55;;;;;;;152.47;85.32;;;;;;;5.16;74.60;101239.02;1802253;78;25761;-78
2021/03/26 04:37:34;;;;;;;149.18;82.15;;;;;;;5.19;74.76;101244.07;1776110;78;26984;-78
2021/03/26 04:40:14;;;;;;;145.32;79.20;;;;;;;5.22;74.73;101241.13;1802919;78;25915;-78
2021/03/26 04:43:22;;;;;;;153.20;82.10;;;;;;;5.25;74.75;101244.36;1778146;78;25861;-78
2021/03/26 04:46:26;;;;;;;153.95;80.57;;;;;;;5.26;74.80;101246.02;1802689;78;25844;-78
2021/03/26 04:49:37;;;;;;;153.50;80.30;;;;;;;5.36;74.84;101247.39;1834046;77;26367;-77
2021/03/26 04:52:14;;;;;;;153.00;80.17;;;;;;;5.31;74.82;101246.47;1795976;78;26070;-77
2021/03/26 04:55:15;;;;;;;151.72;81.30;;;;;;;5.34;74.81;101246.69;1794748;78;27501;-77
2021/03/26 04:58:05;;;;;;;152.40;94.37;;;;;;;5.41;74.76;101245.98;1821435;77;33017;-77
2021/03/26 05:01:02;;;;;;;144.77;79.42;;;;;;;5.57;74.33;101243.27;1771794;78;26053;-77
2021/03/26 05:03:40;;;;;;;160.43;85.85;;;;;;;5.55;74.46;101248.73;1758091;80;27624;-78
2021/03/26 05:06:29;;;;;;;154.18;85.97;;;;;;;5.55;74.50;101251.39;1754755;80;26492;-77
2021/03/26 05:09:03;;;;;;;153.07;86.20;;;;;;;5.51;74.41;101257.97;1726116;80;25739;-77
2021/03/26 05:11:35;;;;;;;151.85;84.15;;;;;;;5.52;74.50;101254.31;1774513;80;25815;-76
2021/03/26 05:14:09;;;;;;;154.05;84.30;;;;;;;5.54;74.51;101251.03;1781024;79;25760;-77
2021/03/26 05:17:07;;;;;;;153.57;82.27;;;;;;;5.64;74.68;101254.55;1836649;77;25672;-77
2021/03/26 05:20:16;;;;;;;152.50;81.90;;;;;;;5.62;74.74;101257.00;1746043;78;25761;-76
2021/03/26 05:23:05;;;;;;;156.00;83.35;;;;;;;5.67;74.79;101258.72;1832566;77;26460;-77
2021/03/26 05:25:39;;;;;;;154.20;84.55;;;;;;;5.58;74.88;101261.73;1797155;78;26081;-77
2021/03/26 05:28:33;;;;;;;158.70;84.32;;;;;;;5.59;74.98;101255.93;1806096;78;28428;-77
2021/03/26 05:31:56;;;;;;;154.00;80.00;;;;;;;5.62;75.11;101268.95;1798231;78;26472;-77
2021/03/26 05:35:12;;;;;;;156.27;96.90;;;;;;;5.67;75.17;101263.56;1826866;77;32454;-76
2021/03/26 05:38:01;;;;;;;152.12;84.60;;;;;;;5.83;74.68;101261.69;1791043;78;25964;-77
2021/03/26 05:40:59;;;;;;;150.97;86.30;;;;;;;5.88;74.97;101267.47;1838671;77;25746;-78
2021/03/26 05:44:08;;;;;;;162.90;85.40;;;;;;;5.85;75.01;101273.89;1794111;77;26418;-77
2021/03/26 05:46:46;;;;;;;147.93;82.75;;;;;;;5.88;75.08;101274.11;1792154;79;27731;-77
2021/03/26 05:49:54;;;;;;;159.37;85.32;;;;;;;5.92;75.13;101278.16;1773656;79;26475;-78
2021/03/26 05:52:48;;;;;;;154.63;85.03;;;;;;;5.97;75.25;101282.06;1767516;79;25817;-76
2021/03/26 05:55:48;;;;;;;151.97;82.02;;;;;;;6.03;75.15;101282.02;1791420;79;26046;-77
2021/03/26 05:58:47;;;;;;;160.90;85.40;;;;;;;6.07;75.12;101284.73;1763320;79;26109;-77
2021/03/26 06:01:49;;;;;;;160.52;86.75;;;;;;;6.08;75.08;101284.59;1798917;79;28496;-77
2021/03/26 06:05:04;;;;;;;149.82;78.92;;;;;;;6.14;75.20;101291.15;1763416;79;26517;-77
2021/03/26 06:08:47;;;;;;;162.22;86.25;;;;;;;6.17;75.23;101292.21;1742404;79;26597;-77
2021/03/26 06:12:10;;;;;;;155.50;84.45;;;;;;;6.17;75.30;101296.20;1791235;79;25767;-76
2021/03/26 06:15:44;;;;;;;158.87;86.30;;;;;;;6.32;75.33;101289.95;1839190;77;25740;-77
2021/03/26 06:18:58;;;;;;;158.87;83.35;;;;;;;6.30;75.31;101292.76;1798900;78;26109;-75
2021/03/26 06:21:46;;;;;;;167.95;90.42;;;;;;;6.38;75.25;101287.55;1842965;77;25641;-77
2021/03/26 06:24:59;;;;;;;165.22;84.25;;;;;;;6.33;75.28;101290.31;1771527;80;25731;-76
2021/03/26 06:27:39;;;;;;;161.25;85.77;;;;;;;6.36;75.25;101295.33;1761787;80;26723;-77
2021/03/26 06:30:39;;;;;;;164.88;84.17;;;;;;;6.40;75.29;101291.39;1763061;80;26099;-78
2021/03/26 06:33:55;;;;;;;144.68;83.00;;;;;;;6.53;75.38;101297.25;1827316;77;25660;-77
2021/03/26 06:36:49;;;;;;;152.78;84.85;;;;;;;6.50;75.32;101305.55;1787244;80;26173;-78
2021/03/26 06:39:34;;;;;;;154.45;85.47;;;;;;;6.56;75.35;101303.15;1757033;80;27539;-78
2021/03/26 06:42:28;;;;;;;150.45;84.35;;;;;;;6.61;75.31;101306.20;1758925;79;25985;-76
2021/03/26 06:45:09;;;;;;;144.10;81.78;;;;;;;6.72;75.23;101302.52;1841684;77;25746;-76
2021/03/26 06:48:18;;;;;;;147.20;83.07;;;;;;;6.71;75.21;101307.03;1785141;78;26409;-78
2021/03/26 06:51:23;;;;;;;154.63;81.90;;;;;;;6.76;75.21;101311.89;1784303;78;27523;-77
2021/03/26 06:54:38;;;;;;;148.02;84.37;;;;;;;6.79;75.21;101308.47;1728711;81;26481;-77
2021/03/26 06:57:33;;;;;;;148.97;81.67;;;;;;;6.85;75.23;101309.22;1680839;82;25972;-77
2021/03/26 07:00:42;;;;;;;154.50;88.92;;;;;;;6.92;75.17;101309.47;1747740;80;25870;-77
2021/03/26 07:03:38;;;;;;;160.40;86.45;;;;;;;6.96;75.16;101317.03;1704119;82;25931;-77
2021/03/26 07:07:01;;;;;;;142.85;80.00;;;;;;;7.03;75.18;101313.29;1721031;82;28543;-77
2021/03/26 07:09:58;;;;;;;155.45;82.62;;;;;;;7.08;75.05;101313.67;1748025;81;25804;-77
2021/03/26 07:12:43;;;;;;;144.70;81.02;;;;;;;7.13;74.97;101311.41;1713393;82;26365;-77
2021/03/26 07:15:21;;;;;;;154.27;81.72;;;;;;;7.19;75.07;101305.48;1732322;81;25350;-77
2021/03/26 07:18:02;;;;;;;150.40;83.67;;;;;;;7.26;75.00;101312.40;1723667;81;25348;-78
2021/03/26 07:21:08;;;;;;;144.72;81.60;;;;;;;7.34;75.06;101308.49;1741285;81;27562;-78
2021/03/26 07:24:14;;;;;;;150.82;83.50;;;;;;;7.42;75.31;101309.43;1739325;81;26274;-78
2021/03/26 07:27:08;;;;;;;147.65;82.60;;;;;;;7.50;75.18;101305.55;1686442;83;26167;-77
2021/03/26 07:30:04;;;;;;;143.07;79.67;;;;;;;7.58;75.18;101307.45;1747769;80;25756;-78
2021/03/26 07:33:09;;;;;;;142.40;77.50;;;;;;;7.68;75.20;101313.55;1740437;81;26438;-78
2021/03/26 07:35:44;;;;;;;140.70;80.95;;;;;;;7.74;74.92;101315.12;1713267;83;27614;-77
2021/03/26 07:38:40;;;;;;;142.07;77.37;;;;;;;7.83;74.82;101321.89;1723029;81;25975;-76
2021/03/26 07:41:56;;;;;;;136.45;79.20;;;;;;;7.90;74.82;101318.94;1732229;81;25799;-78
2021/03/26 07:44:50;;;;;;;150.45;83.90;;;;;;;7.99;74.67;101319.37;1750608;80;25714;-77
2021/03/26 07:47:36;;;;;;;157.10;88.85;;;;;;;8.08;74.60;101317.97;1706823;82;25864;-77
2021/03/26 07:50:40;;;;;;;332.83;171.30;;;;;;;8.18;74.47;101310.71;1684833;83;27714;-78
2021/03/26 07:53:44;;;;;;;179.05;98.33;;;;;;;8.27;74.57;101314.31;1686260;82;25925;-78
2021/03/26 07:56:38;;;;;;;157.85;85.50;;;;;;;8.36;74.55;101316.88;1680057;82;25783;-78
2021/03/26 07:59:51;;;;;;;137.72;77.25;;;;;;;8.47;74.40;101319.30;1707987;82;26193;-77
2021/03/26 08:02:24;;;;;;;151.65;80.70;;;;;;;8.55;74.39;101321.21;1640010;85;26356;-76
2021/03/26 08:05:25;;;;;;;150.68;85.30;;;;;;;8.67;74.08;101325.30;1675133;83;28544;-78
2021/03/26 08:08:19;;;;;;;221.77;113.17;;;;;;;8.80;74.33;101330.21;1697326;82;25416;-78
2021/03/26 08:11:00;;;;;;;153.90;88.78;;;;;;;8.91;74.25;101328.62;1682090;84;25868;-77
2021/03/26 08:14:22;;;;;;;159.27;84.55;;;;;;;9.09;74.38;101334.22;1817310;77;26282;-78
2021/03/26 08:17:18;;;;;;;157.30;85.03;;;;;;;9.13;73.99;101337.44;1780244;79;26176;-78
2021/03/26 08:20:11;;;;;;;172.80;97.92;;;;;;;9.17;73.56;101336.92;1757359;79;27532;-78
2021/03/26 08:23:02;;;;;;;187.37;102.15;;;;;;;9.21;73.36;101336.98;1772593;79;26393;-78
2021/03/26 08:25:44;;;;;;;156.30;89.45;;;;;;;9.31;73.50;101339.02;1777138;79;25880;-78
2021/03/26 08:28:45;;;;;;;150.10;81.02;;;;;;;9.44;73.33;101343.06;1793554;79;25874;-79
2021/03/26 08:31:50;;;;;;;137.47;81.67;;;;;;;9.59;73.20;101345.46;1793407;79;25804;-78
2021/03/26 08:35:02;;;;;;;125.80;74.30;;;;;;;9.73;72.36;101350.20;1721370;82;27713;-76
2021/03/26 08:38:13;;;;;;;132.60;74.40;;;;;;;9.83;72.47;101353.08;1776531;79;26526;-78
2021/03/26 08:41:15;;;;;;;131.32;76.25;;;;;;;9.94;72.27;101347.91;1794084;79;26450;-78
2021/03/26 08:43:53;;;;;;;131.87;74.50;;;;;;;10.03;72.04;101353.09;1755260;79;26022;-79
2021/03/26 08:46:39;;;;;;;124.27;73.07;;;;;;;10.13;71.66;101352.99;1790784;79;25364;-77
2021/03/26 08:49:36;;;;;;;134.82;75.10;;;;;;;10.23;71.82;101352.33;1746853;81;28026;-78
2021/03/26 08:52:20;;;;;;;126.15;71.72;;;;;;;10.33;71.60;101349.50;1761933;81;25702;-78
2021/03/26 08:55:11;;;;;;;127.53;74.92;;;;;;;10.41;71.48;101354.85;1746888;81;25808;-78
2021/03/26 08:58:07;;;;;;;129.53;73.12;;;;;;;10.49;71.43;101354.84;1746445;81;26138;-79
2021/03/26 09:01:01;;;;;;;125.42;69.65;;;;;;;10.59;71.15;101357.69;1742947;81;26026;-79
2021/03/26 09:04:25;;;;;;;116.60;67.82;;;;;;;10.67;71.03;101361.69;1761782;80;27573;-79
2021/03/26 09:07:22;;;;;;;119.87;67.67;;;;;;;10.75;70.19;101362.20;1719282;82;26153;-78
2021/03/26 09:10:13;;;;;;;110.57;64.47;;;;;;;10.80;69.81;101361.17;1712504;82;25903;-78
2021/03/26 09:13:23;;;;;;;110.83;63.55;;;;;;;10.82;70.01;101367.20;1744459;80;25784;-79
2021/03/26 09:16:11;;;;;;;104.50;62.93;;;;;;;10.87;69.56;101364.86;1758925;79;25756;-78
2021/03/26 09:18:53;;;;;;;96.80;56.53;;;;;;;10.90;69.38;101360.51;1732742;81;27553;-79
2021/03/26 09:21:41;;;;;;;101.22;57.53;;;;;;;10.91;68.50;101360.83;1756199;78;26441;-78
2021/03/26 09:24:25;;;;;;;99.30;56.50;;;;;;;10.92;68.39;101365.19;1751913;79;25788;-79
2021/03/26 09:27:07;;;;;;;95.87;55.90;;;;;;;10.96;68.53;101362.50;1780239;80;25710;-78
2021/03/26 09:29:58;;;;;;;90.47;54.10;;;;;;;10.98;68.43;101362.32;1759440;79;25886;-78
2021/03/26 09:32:36;;;;;;;94.47;56.73;;;;;;;10.99;67.84;101368.84;1760567;80;27457;-78
2021/03/26 09:35:15;;;;;;;96.35;54.45;;;;;;;10.98;67.71;101367.68;1738207;79;25882;-78
2021/03/26 09:37:47;;;;;;;90.45;52.90;;;;;;;10.97;67.83;101374.88;1779451;79;25735;-78
2021/03/26 09:40:27;;;;;;;91.02;55.23;;;;;;;10.94;67.16;101373.90;1757287;79;25802;-77
2021/03/26 09:43:20;;;;;;;85.05;53.48;;;;;;;10.96;66.94;101367.86;1826604;77;26292;-78
2021/03/26 09:46:08;;;;;;;86.47;53.02;;;;;;;10.91;66.92;101369.36;1775428;78;25948;-79
2021/03/26 09:49:00;;;;;;;87.12;52.40;;;;;;;10.90;67.31;101371.23;1770760;80;27719;-78
2021/03/26 09:51:55;;;;;;;83.95;49.65;;;;;;;10.88;66.87;101370.56;1766100;78;25795;-79
2021/03/26 09:54:46;;;;;;;84.25;50.73;;;;;;;10.87;66.54;101368.87;1758251;78;26120;-78
2021/03/26 09:58:03;;;;;;;87.92;52.70;;;;;;;10.86;66.40;101368.56;1792119;78;25906;-78
2021/03/26 10:00:45;;;;;;;83.35;49.55;;;;;;;10.85;66.03;101377.59;1763511;78;25909;-77
2021/03/26 10:03:47;;;;;;;81.42;50.00;;;;;;;10.84;66.23;101366.03;1750213;80;28894;-77
2021/03/26 10:06:53;;;;;;;86.45;50.12;;;;;;;10.84;66.11;101374.06;1760082;80;25991;-78
2021/03/26 10:09:44;;;;;;;85.30;51.15;;;;;;;10.84;66.01;101365.21;1779810;78;25731;-77
2021/03/26 10:12:26;;;;;;;81.65;48.80;;;;;;;10.84;66.11;101359.33;1777038;78;26371;-77
2021/03/26 10:15:02;;;;;;;91.32;52.08;;;;;;;10.85;66.08;101362.85;1772988;78;26088;-77
2021/03/26 10:17:50;;;;;;;88.30;50.08;;;;;;;10.85;66.22;101362.85;1762589;80;27405;-78
2021/03/26 10:20:34;;;;;;;92.55;51.77;;;;;;;10.88;66.10;101367.04;1766829;80;25893;-77
2021/03/26 10:23:35;;;;;;;85.53;50.75;;;;;;;10.91;65.88;101366.19;1738269;78;25818;-77
2021/03/26 10:26:32;;;;;;;87.50;51.35;;;;;;;10.95;65.85;101368.85;1755863;78;26342;-77
2021/03/26 10:29:12;;;;;;;89.65;51.88;;;;;;;10.99;65.83;101368.84;1784210;78;25933;-77
2021/03/26 10:31:42;;;;;;;87.70;52.48;;;;;;;11.03;65.92;101366.18;1799124;78;28499;-80
2021/03/26 10:34:13;;;;;;;90.57;56.13;;;;;;;11.09;65.80;101365.98;1695075;82;25561;-80
2021/03/26 10:36:49;;;;;;;85.53;50.45;;;;;;;11.11;65.81;101367.99;1707382;81;25844;-79
2021/03/26 10:39:37;;;;;;;87.53;53.95;;;;;;;11.13;65.77;101364.14;1674002;83;26437;-79
2021/03/26 10:42:27;;;;;;;87.85;53.58;;;;;;;11.14;65.49;101367.13;1713194;81;26060;-78
2021/03/26 10:45:20;;;;;;;92.37;56.35;;;;;;;11.17;65.65;101369.98;1742572;81;27540;-79
2021/03/26 10:47:59;;;;;;;88.30;51.92;;;;;;;11.19;65.64;101362.10;1746949;81;25493;-79
2021/03/26 10:50:57;;;;;;;92.10;54.25;;;;;;;11.22;65.91;101358.25;1741867;81;25828;-79
2021/03/26 10:53:28;;;;;;;90.85;53.95;;;;;;;11.24;65.74;101358.41;1747690;81;26077;-79
2021/03/26 10:56:10;;;;;;;89.62;54.05;;;;;;;11.26;65.79;101355.05;1714628;81;26178;-79
2021/03/26 10:58:48;;;;;;;92.67;55.33;;;;;;;11.29;65.60;101352.53;1718064;81;27563;-79
2021/03/26 11:01:22;;;;;;;90.17;54.30;;;;;;;11.30;65.26;101351.01;1708872;81;25919;-79
2021/03/26 11:04:30;;;;;;;102.22;56.25;;;;;;;11.33;65.20;101351.17;1745350;81;26459;-79
2021/03/26 11:07:16;;;;;;;97.30;52.95;;;;;;;11.35;64.97;101350.00;1720423;81;26138;-79
2021/03/26 11:09:51;;;;;;;89.95;53.00;;;;;;;11.36;65.11;101340.92;1691607;82;26155;-79
2021/03/26 11:12:24;;;;;;;88.92;52.85;;;;;;;11.39;65.04;101341.93;1698997;82;26733;-79
2021/03/26 11:15:09;;;;;;;84.62;51.68;;;;;;;11.42;64.95;101338.03;1697822;82;26622;-79
2021/03/26 11:18:00;;;;;;;87.33;53.50;;;;;;;11.43;64.95;101337.04;1678755;83;25840;-78
2021/03/26 11:21:01;;;;;;;87.30;51.55;;;;;;;11.42;64.87;101331.33;1689478;83;25834;-78
2021/03/26 11:23:38;;;;;;;83.00;50.30;;;;;;;11.42;64.73;101333.52;1697513;83;25801;-77
2021/03/26 11:26:28;;;;;;;79.85;49.23;;;;;;;11.46;64.57;101334.02;1732001;81;27581;-78
2021/03/26 11:29:01;;;;;;;83.75;47.83;;;;;;;11.47;64.56;101335.68;1706843;81;26095;-77
2021/03/26 11:31:41;;;;;;;88.07;50.25;;;;;;;11.56;64.36;101334.64;1829863;77;25728;-79
2021/03/26 11:34:35;;;;;;;78.95;48.33;;;;;;;11.52;64.28;101330.14;1773881;78;25420;-78
2021/03/26 11:37:11;;;;;;;75.75;47.85;;;;;;;11.54;64.02;101333.48;1748448;80;27472;-79
2021/03/26 11:39:44;;;;;;;82.02;47.78;;;;;;;11.56;64.06;101330.61;1756733;80;25868;-78
2021/03/26 11:42:19;;;;;;;84.30;48.38;;;;;;;11.59;64.06;101330.24;1776833;78;25808;-79
2021/03/26 11:44:57;;;;;;;77.17;46.37;;;;;;;11.63;64.05;101325.70;1782857;79;25902;-79
2021/03/26 11:47:37;;;;;;;87.60;51.90;;;;;;;11.69;63.99;101328.73;1758459;80;26299;-79
2021/03/26 11:50:22;;;;;;;86.50;51.47;;;;;;;11.74;63.88;101318.31;1740226;81;27609;-79
2021/03/26 11:53:21;;;;;;;78.75;49.75;;;;;;;11.77;63.61;101309.89;1752493;80;26182;-79
2021/03/26 11:56:17;;;;;;;73.35;45.20;;;;;;;11.83;63.26;101315.88;1780539;79;26170;-78
2021/03/26 11:58:59;;;;;;;74.62;45.23;;;;;;;11.88;63.24;101317.05;1725096;81;26561;-77
2021/03/26 12:01:31;;;;;;;77.82;44.03;;;;;;;11.94;62.78;101310.11;1759590;79;26060;-78
2021/03/26 12:04:13;;;;;;;74.65;43.25;;;;;;;11.98;62.56;101304.71;1750186;79;27381;-77
2021/03/26 12:06:55;;;;;;;72.67;42.93;;;;;;;12.03;62.22;101303.68;1793062;79;25790;-77
2021/03/26 12:09:31;;;;;;;77.78;43.13;;;;;;;12.07;62.06;101302.30;1777361;79;25943;-78
2021/03/26 12:12:19;;;;;;;70.85;43.83;;;;;;;12.11;61.93;101296.90;1749648;79;26123;-79
2021/03/26 12:15:13;;;;;;;76.90;44.10;;;;;;;12.13;61.96;101293.02;1751084;80;26581;-79
2021/03/26 12:18:22;;;;;;;81.30;45.55;;;;;;;12.16;61.79;101289.99;1788546;79;27590;-78
2021/03/26 12:20:53;;;;;;;78.15;46.73;;;;;;;12.19;61.42;101286.08;1767348;80;26102;-78
2021/03/26 12:23:41;;;;;;;80.83;47.78;;;;;;;12.20;61.47;101289.95;1771539;80;26199;-77
2021/03/26 12:26:16;;;;;;;78.30;44.90;;;;;;;12.21;61.74;101288.92;1758446;80;26213;-77
2021/03/26 12:29:13;;;;;;;83.25;45.70;;;;;;;12.21;61.78;101278.17;1785985;80;25702;-78
2021/03/26 12:32:01;;;;;;;93.58;49.23;;;;;;;12.22;61.48;101275.84;1758909;80;28908;-78
2021/03/26 12:34:48;;;;;;;94.67;53.95;;;;;;;12.22;61.41;101273.15;1758586;80;25759;-78
2021/03/26 12:37:24;;;;;;;106.12;56.37;;;;;;;12.20;61.47;101276.52;1758778;80;25792;-77